createdAt,value
2018-10-04T00:00:16.960Z,0
2018-10-04T00:01:17.688Z,0
2018-10-04T00:02:18.409Z,0
2018-10-04T00:03:19.139Z,0
2018-10-04T00:04:19.850Z,0
2018-10-04T00:05:20.586Z,0
2018-10-04T00:06:21.301Z,0
2018-10-04T00:07:22.016Z,0
2018-10-04T00:08:22.750Z,0
2018-10-04T00:09:23.463Z,0
2018-10-04T00:10:24.421Z,0
2018-10-04T00:11:25.140Z,0
2018-10-04T00:12:25.855Z,0
2018-10-04T00:13:26.586Z,0
2018-10-04T00:14:27.298Z,0
2018-10-04T00:15:28.073Z,0
2018-10-04T00:16:28.792Z,0
2018-10-04T00:17:29.512Z,0
2018-10-04T00:18:30.243Z,0
2018-10-04T00:19:30.976Z,0
2018-10-04T00:20:31.708Z,0
2018-10-04T00:21:32.422Z,0
2018-10-04T00:22:33.144Z,0
2018-10-04T00:23:33.850Z,0
2018-10-04T00:24:34.590Z,0
2018-10-04T00:25:35.293Z,0
2018-10-04T00:26:36.015Z,0
2018-10-04T00:27:36.733Z,0
2018-10-04T00:28:37.446Z,0
2018-10-04T00:29:38.158Z,0
2018-10-04T00:30:39.124Z,0
2018-10-04T00:31:40.088Z,0
2018-10-04T00:32:40.809Z,0
2018-10-04T00:33:41.526Z,0
2018-10-04T00:34:42.265Z,0
2018-10-04T00:35:42.969Z,0
2018-10-04T00:36:43.982Z,0
2018-10-04T00:37:44.709Z,0
2018-10-04T00:38:45.416Z,0
2018-10-04T00:39:46.158Z,0
2018-10-04T00:40:46.867Z,0
2018-10-04T00:41:47.588Z,0
2018-10-04T00:42:48.304Z,0
2018-10-04T00:43:49.032Z,0
2018-10-04T00:44:49.768Z,0
2018-10-04T00:45:50.537Z,0
2018-10-04T00:46:51.199Z,0
2018-10-04T00:47:51.921Z,0
2018-10-04T00:48:52.648Z,0
2018-10-04T00:49:53.365Z,0
2018-10-04T00:50:54.082Z,0
2018-10-04T00:51:54.855Z,0
2018-10-04T00:52:55.827Z,0
2018-10-04T00:53:56.551Z,0
2018-10-04T00:54:57.277Z,0
2018-10-04T00:55:57.995Z,0
2018-10-04T00:56:58.713Z,0
2018-10-04T00:57:59.432Z,0
2018-10-04T00:59:00.149Z,0
2018-10-04T01:00:00.862Z,0
2018-10-04T01:01:01.586Z,0
2018-10-04T01:02:02.295Z,0
2018-10-04T01:03:03.014Z,0
2018-10-04T01:04:03.735Z,0
2018-10-04T01:05:04.492Z,0
2018-10-04T01:06:05.180Z,0
2018-10-04T01:07:05.905Z,0
2018-10-04T01:08:06.610Z,0
2018-10-04T01:09:07.324Z,0
2018-10-04T01:10:08.044Z,0
2018-10-04T01:11:08.763Z,0
2018-10-04T01:12:09.471Z,0
2018-10-04T01:13:10.234Z,0
2018-10-04T01:14:10.951Z,0
2018-10-04T01:15:11.675Z,0
2018-10-04T01:16:12.396Z,0
2018-10-04T01:17:13.122Z,0
2018-10-04T01:18:13.886Z,0
2018-10-04T01:19:14.624Z,0
2018-10-04T01:20:15.334Z,0
2018-10-04T01:21:16.053Z,0
2018-10-04T01:22:17.053Z,0
2018-10-04T01:23:17.757Z,0
2018-10-04T01:24:18.477Z,0
2018-10-04T01:25:19.191Z,0
2018-10-04T01:26:19.924Z,0
2018-10-04T01:27:20.648Z,0
2018-10-04T01:28:21.368Z,0
2018-10-04T01:29:22.085Z,0
2018-10-04T01:30:22.804Z,0
2018-10-04T01:31:23.584Z,0
2018-10-04T01:32:24.241Z,0
2018-10-04T01:33:25.210Z,0
2018-10-04T01:34:25.976Z,0
2018-10-04T01:35:26.695Z,0
2018-10-04T01:36:27.422Z,0
2018-10-04T01:37:28.140Z,0
2018-10-04T01:39:29.931Z,0
2018-10-04T01:40:30.651Z,0
2018-10-04T01:41:31.369Z,0
2018-10-04T01:42:32.106Z,0
2018-10-04T01:43:32.820Z,0
2018-10-04T01:44:33.533Z,0
2018-10-04T01:45:34.253Z,0
2018-10-04T01:46:34.982Z,0
2018-10-04T01:47:35.703Z,0
2018-10-04T01:48:36.430Z,0
2018-10-04T01:49:37.136Z,0
2018-10-04T01:50:37.848Z,0
2018-10-04T01:51:38.581Z,0
2018-10-04T01:52:39.298Z,0
2018-10-04T01:53:40.272Z,0
2018-10-04T01:54:40.980Z,0
2018-10-04T01:55:41.713Z,0
2018-10-04T01:56:42.420Z,0
2018-10-04T01:57:43.136Z,0
2018-10-04T01:58:43.844Z,0
2018-10-04T01:59:44.572Z,0
2018-10-04T02:00:45.287Z,0
2018-10-04T02:01:46.004Z,0
2018-10-04T02:02:46.735Z,0
2018-10-04T02:03:47.754Z,0
2018-10-04T02:04:48.462Z,0
2018-10-04T02:05:49.177Z,0
2018-10-04T02:06:49.906Z,0
2018-10-04T02:07:50.630Z,0
2018-10-04T02:08:51.396Z,0
2018-10-04T02:09:52.119Z,0
2018-10-04T02:10:53.094Z,0
2018-10-04T02:11:53.814Z,0
2018-10-04T02:12:54.541Z,0
2018-10-04T02:13:55.305Z,0
2018-10-04T02:14:56.288Z,0
2018-10-04T02:15:57.010Z,0
2018-10-04T02:16:57.734Z,0
2018-10-04T02:17:58.461Z,0
2018-10-04T02:18:59.180Z,0
2018-10-04T02:19:59.893Z,0
2018-10-04T02:21:00.609Z,0
2018-10-04T02:22:01.341Z,0
2018-10-04T02:23:02.055Z,0
2018-10-04T02:24:02.773Z,0
2018-10-04T02:25:03.493Z,0
2018-10-04T02:26:04.263Z,0
2018-10-04T02:27:05.488Z,0
2018-10-04T02:28:06.199Z,0
2018-10-04T02:29:06.919Z,0
2018-10-04T02:30:07.648Z,0
2018-10-04T02:31:08.688Z,0
2018-10-04T02:32:09.396Z,0
2018-10-04T02:33:10.122Z,0
2018-10-04T02:34:10.831Z,0
2018-10-04T02:35:11.547Z,0
2018-10-04T02:36:12.332Z,0
2018-10-04T02:37:13.038Z,0
2018-10-04T02:38:13.769Z,0
2018-10-04T02:39:14.498Z,0
2018-10-04T02:40:15.212Z,0
2018-10-04T02:41:15.940Z,0
2018-10-04T02:42:16.670Z,0
2018-10-04T02:43:17.406Z,0
2018-10-04T02:44:18.122Z,0
2018-10-04T02:45:18.845Z,0
2018-10-04T02:46:19.575Z,0
2018-10-04T02:47:20.290Z,0
2018-10-04T02:48:21.009Z,0
2018-10-04T02:49:21.716Z,0
2018-10-04T02:50:22.433Z,0
2018-10-04T02:51:23.227Z,0
2018-10-04T02:52:23.979Z,0
2018-10-04T02:53:24.711Z,0
2018-10-04T02:54:25.426Z,0
2018-10-04T02:55:26.151Z,0
2018-10-04T02:56:26.873Z,0
2018-10-04T02:57:27.585Z,0
2018-10-04T02:58:28.307Z,0
2018-10-04T02:59:29.032Z,0
2018-10-04T03:00:29.755Z,0
2018-10-04T03:01:30.473Z,0
2018-10-04T03:02:31.203Z,0
2018-10-04T03:03:31.913Z,0
2018-10-04T03:04:32.683Z,0
2018-10-04T03:05:33.396Z,0
2018-10-04T03:06:34.118Z,0
2018-10-04T03:07:34.835Z,0
2018-10-04T03:08:35.554Z,0
2018-10-04T03:09:36.569Z,0
2018-10-04T03:10:37.292Z,0
2018-10-04T03:11:38.007Z,0
2018-10-04T03:12:38.743Z,0
2018-10-04T03:13:39.475Z,0
2018-10-04T03:14:40.201Z,0
2018-10-04T03:15:40.920Z,0
2018-10-04T03:16:41.643Z,0
2018-10-04T03:17:42.375Z,0
2018-10-04T03:18:43.106Z,0
2018-10-04T03:19:43.819Z,0
2018-10-04T03:20:44.598Z,0
2018-10-04T03:21:45.310Z,0
2018-10-04T03:22:46.035Z,0
2018-10-04T03:23:46.759Z,0
2018-10-04T03:24:47.469Z,0
2018-10-04T03:25:48.232Z,0
2018-10-04T03:26:49.189Z,0
2018-10-04T03:27:49.915Z,0
2018-10-04T03:28:50.663Z,0
2018-10-04T03:29:51.376Z,0
2018-10-04T03:30:52.118Z,0
2018-10-04T03:31:52.840Z,0
2018-10-04T03:32:53.561Z,0
2018-10-04T03:33:54.277Z,0
2018-10-04T03:34:54.999Z,0
2018-10-04T03:35:55.772Z,0
2018-10-04T03:36:56.490Z,0
2018-10-04T03:37:57.211Z,0
2018-10-04T03:38:57.947Z,0
2018-10-04T03:39:58.662Z,0
2018-10-04T03:40:59.427Z,0
2018-10-04T03:42:00.149Z,0
2018-10-04T03:43:00.865Z,0
2018-10-04T03:44:01.573Z,0
2018-10-04T03:45:02.303Z,0
2018-10-04T03:46:03.064Z,0
2018-10-04T03:47:03.772Z,0
2018-10-04T03:48:04.743Z,0
2018-10-04T03:49:05.468Z,0
2018-10-04T03:50:06.199Z,0
2018-10-04T03:51:06.924Z,0
2018-10-04T03:52:07.641Z,0
2018-10-04T03:53:08.350Z,0
2018-10-04T03:54:09.075Z,0
2018-10-04T03:55:09.797Z,0
2018-10-04T03:56:10.509Z,0
2018-10-04T03:57:11.493Z,0
2018-10-04T03:58:12.251Z,0
2018-10-04T03:59:13.215Z,0
2018-10-04T04:00:13.933Z,0
2018-10-04T04:01:14.647Z,0
2018-10-04T04:02:15.637Z,0
2018-10-04T04:03:16.405Z,0
2018-10-04T04:04:17.123Z,0
2018-10-04T04:05:17.841Z,0
2018-10-04T04:06:18.560Z,0
2018-10-04T04:07:19.273Z,0
2018-10-04T04:08:19.990Z,0
2018-10-04T04:09:20.757Z,0
2018-10-04T04:10:21.478Z,0
2018-10-04T04:11:22.208Z,0
2018-10-04T04:12:22.931Z,0
2018-10-04T04:13:23.652Z,0
2018-10-04T04:14:24.371Z,0
2018-10-04T04:15:25.095Z,0
2018-10-04T04:16:26.088Z,0
2018-10-04T04:17:27.063Z,0
2018-10-04T04:18:27.774Z,0
2018-10-04T04:19:28.533Z,0
2018-10-04T04:20:29.254Z,0
2018-10-04T04:21:29.973Z,0
2018-10-04T04:22:30.694Z,0
2018-10-04T04:23:31.424Z,0
2018-10-04T04:24:32.204Z,0
2018-10-04T04:25:32.913Z,0
2018-10-04T04:26:33.662Z,0
2018-10-04T04:27:34.373Z,0
2018-10-04T04:28:35.087Z,0
2018-10-04T04:29:35.850Z,0
2018-10-04T04:30:36.620Z,0
2018-10-04T04:31:37.551Z,0
2018-10-04T04:32:38.262Z,0
2018-10-04T04:33:38.987Z,0
2018-10-04T04:34:39.715Z,0
2018-10-04T04:35:40.437Z,0
2018-10-04T04:36:41.151Z,0
2018-10-04T04:37:41.873Z,0
2018-10-04T04:38:42.628Z,0
2018-10-04T04:39:43.357Z,0
2018-10-04T04:40:44.140Z,0
2018-10-04T04:41:44.860Z,0
2018-10-04T04:42:45.588Z,0
2018-10-04T04:43:46.302Z,0
2018-10-04T04:44:47.031Z,0
2018-10-04T04:45:47.753Z,0
2018-10-04T04:46:48.569Z,0
2018-10-04T04:47:49.202Z,0
2018-10-04T04:48:49.927Z,0
2018-10-04T04:49:50.647Z,0
2018-10-04T04:50:51.364Z,0
2018-10-04T04:51:52.086Z,0
2018-10-04T04:52:52.888Z,0
2018-10-04T04:53:53.516Z,0
2018-10-04T04:54:54.229Z,0
2018-10-04T04:55:54.952Z,0
2018-10-04T04:56:55.919Z,0
2018-10-04T04:57:56.697Z,0
2018-10-04T04:58:57.417Z,0
2018-10-04T04:59:58.151Z,0
2018-10-04T05:00:58.871Z,4
2018-10-04T05:01:59.846Z,4
2018-10-04T05:03:00.602Z,4
2018-10-04T05:04:01.316Z,0
2018-10-04T05:05:02.034Z,4
2018-10-04T05:06:03.042Z,4
2018-10-04T05:07:03.711Z,4
2018-10-04T05:08:04.484Z,8
2018-10-04T05:09:05.203Z,8
2018-10-04T05:10:05.921Z,8
2018-10-04T05:11:06.884Z,12
2018-10-04T05:12:07.606Z,12
2018-10-04T05:13:08.321Z,12
2018-10-04T05:14:09.048Z,16
2018-10-04T05:15:09.775Z,20
2018-10-04T05:16:10.607Z,24
2018-10-04T05:17:11.265Z,28
2018-10-04T05:18:11.981Z,32
2018-10-04T05:19:12.949Z,32
2018-10-04T05:20:13.663Z,40
2018-10-04T05:21:14.383Z,44
2018-10-04T05:22:15.163Z,52
2018-10-04T05:23:15.830Z,56
2018-10-04T05:24:16.560Z,68
2018-10-04T05:25:17.282Z,76
2018-10-04T05:26:18.011Z,88
2018-10-04T05:27:18.745Z,104
2018-10-04T05:28:19.466Z,120
2018-10-04T05:29:20.194Z,132
2018-10-04T05:30:20.921Z,132
2018-10-04T05:31:21.649Z,136
2018-10-04T05:32:22.378Z,140
2018-10-04T05:33:23.345Z,164
2018-10-04T05:34:24.063Z,200
2018-10-04T05:35:25.038Z,220
2018-10-04T05:36:25.760Z,248
2018-10-04T05:37:26.640Z,272
2018-10-04T05:38:27.226Z,304
2018-10-04T05:39:28.000Z,344
2018-10-04T05:40:28.995Z,392
2018-10-04T05:41:29.714Z,436
2018-10-04T05:42:30.444Z,448
2018-10-04T05:43:31.173Z,444
2018-10-04T05:44:31.891Z,428
2018-10-04T05:45:32.700Z,428
2018-10-04T05:46:33.340Z,452
2018-10-04T05:47:34.067Z,500
2018-10-04T05:48:35.056Z,560
2018-10-04T05:49:35.779Z,612
2018-10-04T05:50:36.507Z,676
2018-10-04T05:51:37.257Z,724
2018-10-04T05:52:37.972Z,752
2018-10-04T05:53:38.768Z,768
2018-10-04T05:54:39.497Z,804
2018-10-04T05:55:40.232Z,876
2018-10-04T05:56:40.961Z,912
2018-10-04T05:57:41.684Z,940
2018-10-04T05:58:42.473Z,976
2018-10-04T05:59:43.201Z,1080
2018-10-04T06:00:43.944Z,1184
2018-10-04T06:01:44.666Z,1144
2018-10-04T06:02:45.396Z,1208
2018-10-04T06:03:46.121Z,1272
2018-10-04T06:04:46.882Z,1416
2018-10-04T06:05:47.622Z,1584
2018-10-04T06:06:48.349Z,1744
2018-10-04T06:07:49.069Z,1968
2018-10-04T06:08:49.799Z,2136
2018-10-04T06:09:50.553Z,2300
2018-10-04T06:10:51.254Z,2448
2018-10-04T06:11:51.975Z,2612
2018-10-04T06:12:52.711Z,2672
2018-10-04T06:13:53.454Z,2740
2018-10-04T06:14:54.260Z,2736
2018-10-04T06:15:54.902Z,2704
2018-10-04T06:16:55.625Z,2636
2018-10-04T06:17:56.371Z,2568
2018-10-04T06:18:57.089Z,2452
2018-10-04T06:19:57.824Z,2528
2018-10-04T06:20:58.541Z,2464
2018-10-04T06:21:59.278Z,2704
2018-10-04T06:23:00.002Z,2964
2018-10-04T06:24:00.773Z,3152
2018-10-04T06:25:01.499Z,3196
2018-10-04T06:26:02.467Z,3036
2018-10-04T06:27:03.210Z,2896
2018-10-04T06:28:03.935Z,2792
2018-10-04T06:29:04.668Z,2748
2018-10-04T06:30:05.388Z,2816
2018-10-04T06:31:06.112Z,2888
2018-10-04T06:32:06.827Z,3024
2018-10-04T06:33:07.566Z,3096
2018-10-04T06:34:08.288Z,3224
2018-10-04T06:35:09.061Z,3228
2018-10-04T06:36:09.791Z,3180
2018-10-04T06:37:10.519Z,3156
2018-10-04T06:38:11.253Z,3072
2018-10-04T06:39:11.970Z,2908
2018-10-04T06:40:12.751Z,2804
2018-10-04T06:41:13.426Z,2576
2018-10-04T06:42:14.136Z,2848
2018-10-04T06:43:15.110Z,2888
2018-10-04T06:44:15.868Z,3024
2018-10-04T06:45:16.543Z,3288
2018-10-04T06:46:17.266Z,3232
2018-10-04T06:47:17.989Z,3420
2018-10-04T06:48:18.725Z,3580
2018-10-04T06:49:19.698Z,3712
2018-10-04T06:50:20.491Z,3876
2018-10-04T06:51:21.165Z,4012
2018-10-04T06:52:21.876Z,4240
2018-10-04T06:53:22.639Z,4496
2018-10-04T06:54:23.364Z,4536
2018-10-04T06:55:24.096Z,4480
2018-10-04T06:56:24.820Z,4304
2018-10-04T06:57:25.547Z,4200
2018-10-04T06:58:26.521Z,4220
2018-10-04T06:59:27.680Z,4332
2018-10-04T07:00:28.405Z,4076
2018-10-04T07:01:29.129Z,3964
2018-10-04T07:02:29.992Z,4496
2018-10-04T07:03:31.293Z,4328
2018-10-04T07:04:31.975Z,3904
2018-10-04T07:05:32.695Z,4020
2018-10-04T07:06:33.420Z,3992
2018-10-04T07:07:34.146Z,4044
2018-10-04T07:08:34.996Z,4244
2018-10-04T07:09:36.217Z,4348
2018-10-04T07:10:37.157Z,4152
2018-10-04T07:11:37.891Z,3860
2018-10-04T07:12:38.612Z,3916
2018-10-04T07:13:39.339Z,4380
2018-10-04T07:14:40.106Z,3960
2018-10-04T07:15:40.823Z,3924
2018-10-04T07:16:41.560Z,4424
2018-10-04T07:17:42.293Z,4116
2018-10-04T07:18:43.020Z,3988
2018-10-04T07:19:43.752Z,3884
2018-10-04T07:20:44.516Z,3648
2018-10-04T07:21:45.522Z,3900
2018-10-04T07:22:46.557Z,4136
2018-10-04T07:23:47.386Z,4220
2018-10-04T07:24:48.146Z,4404
2018-10-04T07:25:48.874Z,4496
2018-10-04T07:26:49.595Z,4468
2018-10-04T07:27:50.336Z,4420
2018-10-04T07:28:51.066Z,4428
2018-10-04T07:29:51.874Z,4508
2018-10-04T07:30:53.561Z,4572
2018-10-04T07:31:54.428Z,4736
2018-10-04T07:32:55.693Z,4876
2018-10-04T07:33:56.417Z,4908
2018-10-04T07:34:57.174Z,4944
2018-10-04T07:35:57.968Z,5016
2018-10-04T07:36:58.701Z,5096
2018-10-04T07:37:59.436Z,5216
2018-10-04T07:39:00.169Z,5380
2018-10-04T07:40:01.152Z,5444
2018-10-04T07:41:01.941Z,5444
2018-10-04T07:42:02.702Z,5564
2018-10-04T07:43:03.391Z,5792
2018-10-04T07:44:04.118Z,5960
2018-10-04T07:45:05.138Z,6212
2018-10-04T07:46:05.854Z,6724
2018-10-04T07:47:06.584Z,7072
2018-10-04T07:48:07.312Z,7288
2018-10-04T07:49:08.036Z,7380
2018-10-04T07:50:09.038Z,7640
2018-10-04T07:51:10.564Z,8008
2018-10-04T07:52:11.292Z,8140
2018-10-04T07:53:12.040Z,8368
2018-10-04T07:54:12.770Z,8724
2018-10-04T07:55:13.491Z,8756
2018-10-04T07:56:14.271Z,8472
2018-10-04T07:57:15.012Z,8828
2018-10-04T07:58:15.749Z,9080
2018-10-04T07:59:16.476Z,9184
2018-10-04T08:00:17.248Z,9444
2018-10-04T08:01:17.930Z,9720
2018-10-04T08:02:18.664Z,9604
2018-10-04T08:03:19.401Z,9336
2018-10-04T08:04:20.124Z,8968
2018-10-04T08:05:20.844Z,8780
2018-10-04T08:06:21.805Z,8852
2018-10-04T08:07:22.290Z,9140
2018-10-04T08:08:23.021Z,9540
2018-10-04T08:09:23.747Z,9928
2018-10-04T08:10:24.472Z,10104
2018-10-04T08:11:25.204Z,10128
2018-10-04T08:12:25.919Z,9884
2018-10-04T08:13:26.694Z,9632
2018-10-04T08:14:27.402Z,9700
2018-10-04T08:15:28.228Z,9812
2018-10-04T08:16:28.874Z,10244
2018-10-04T08:17:29.603Z,10560
2018-10-04T08:18:30.429Z,11092
2018-10-04T08:19:31.217Z,11020
2018-10-04T08:20:31.942Z,10796
2018-10-04T08:21:32.667Z,10944
2018-10-04T08:22:33.394Z,11116
2018-10-04T08:23:34.142Z,11008
2018-10-04T08:24:34.864Z,10644
2018-10-04T08:25:35.583Z,10664
2018-10-04T08:26:36.305Z,10496
2018-10-04T08:27:37.116Z,10048
2018-10-04T08:28:37.783Z,9280
2018-10-04T08:29:38.516Z,8396
2018-10-04T08:30:39.297Z,8000
2018-10-04T08:31:40.020Z,8012
2018-10-04T08:32:40.771Z,8240
2018-10-04T08:33:41.487Z,8192
2018-10-04T08:34:42.509Z,7856
2018-10-04T08:35:43.267Z,7384
2018-10-04T08:36:43.979Z,7008
2018-10-04T08:37:44.958Z,6820
2018-10-04T08:38:45.687Z,6916
2018-10-04T08:39:46.820Z,7240
2018-10-04T08:40:47.938Z,7488
2018-10-04T08:41:48.673Z,7904
2018-10-04T08:42:49.401Z,8204
2018-10-04T08:43:50.131Z,7944
2018-10-04T08:44:50.958Z,7644
2018-10-04T08:45:51.940Z,7512
2018-10-04T08:46:52.676Z,7684
2018-10-04T08:47:53.406Z,8180
2018-10-04T08:48:54.127Z,8680
2018-10-04T08:49:54.850Z,8992
2018-10-04T08:50:55.633Z,8984
2018-10-04T08:51:56.357Z,9376
2018-10-04T08:52:57.093Z,10144
2018-10-04T08:53:58.078Z,10996
2018-10-04T08:54:58.809Z,11232
2018-10-04T08:55:59.540Z,10984
2018-10-04T08:57:00.280Z,10588
2018-10-04T08:58:01.006Z,10108
2018-10-04T08:59:01.988Z,9472
2018-10-04T09:00:02.713Z,9108
2018-10-04T09:01:03.489Z,8972
2018-10-04T09:02:04.229Z,8828
2018-10-04T09:03:04.954Z,8804
2018-10-04T09:04:05.702Z,9008
2018-10-04T09:05:06.425Z,9284
2018-10-04T09:06:07.204Z,9272
2018-10-04T09:07:07.919Z,9100
2018-10-04T09:08:08.666Z,9204
2018-10-04T09:09:09.380Z,9648
2018-10-04T09:10:10.109Z,9800
2018-10-04T09:11:10.835Z,9560
2018-10-04T09:12:11.575Z,9100
2018-10-04T09:13:12.299Z,8652
2018-10-04T09:14:13.280Z,8316
2018-10-04T09:15:14.009Z,8312
2018-10-04T09:16:14.739Z,8208
2018-10-04T09:17:15.775Z,8024
2018-10-04T09:18:16.491Z,8140
2018-10-04T09:19:17.227Z,8468
2018-10-04T09:20:17.944Z,8816
2018-10-04T09:21:18.928Z,8896
2018-10-04T09:22:19.704Z,8752
2018-10-04T09:23:20.429Z,8104
2018-10-04T09:24:21.174Z,7540
2018-10-04T09:25:21.907Z,7988
2018-10-04T09:26:22.676Z,8644
2018-10-04T09:27:23.429Z,9388
2018-10-04T09:28:24.144Z,10100
2018-10-04T09:29:24.875Z,10680
2018-10-04T09:30:25.591Z,10300
2018-10-04T09:31:26.327Z,9492
2018-10-04T09:32:27.103Z,9024
2018-10-04T09:33:27.819Z,8572
2018-10-04T09:34:28.541Z,8432
2018-10-04T09:35:29.288Z,8540
2018-10-04T09:36:30.006Z,8600
2018-10-04T09:37:31.036Z,9044
2018-10-04T09:38:31.764Z,9028
2018-10-04T09:39:32.487Z,9060
2018-10-04T09:40:33.399Z,9244
2018-10-04T09:41:34.287Z,10048
2018-10-04T09:42:35.062Z,10696
2018-10-04T09:43:35.785Z,10524
2018-10-04T09:44:36.497Z,10456
2018-10-04T09:45:37.228Z,10544
2018-10-04T09:46:37.967Z,10720
2018-10-04T09:47:38.698Z,10432
2018-10-04T09:48:39.515Z,9908
2018-10-04T09:49:40.144Z,9764
2018-10-04T09:50:41.610Z,10216
2018-10-04T09:51:42.556Z,10740
2018-10-04T09:52:43.528Z,10344
2018-10-04T09:53:44.326Z,10120
2018-10-04T09:54:45.373Z,11028
2018-10-04T09:55:46.952Z,12060
2018-10-04T09:56:47.831Z,13452
2018-10-04T09:57:48.574Z,14912
2018-10-04T09:58:49.347Z,15872
2018-10-04T09:59:50.175Z,17556
2018-10-04T10:00:50.807Z,19392
2018-10-04T10:01:51.539Z,20704
2018-10-04T10:02:52.283Z,22016
2018-10-04T10:03:53.020Z,22592
2018-10-04T10:04:53.989Z,22560
2018-10-04T10:05:54.724Z,22080
2018-10-04T10:06:55.507Z,21440
2018-10-04T10:07:56.226Z,20800
2018-10-04T10:08:56.954Z,19456
2018-10-04T10:09:57.698Z,17072
2018-10-04T10:10:58.425Z,15748
2018-10-04T10:11:59.162Z,15496
2018-10-04T10:12:59.902Z,15952
2018-10-04T10:14:00.626Z,16040
2018-10-04T10:15:01.355Z,15600
2018-10-04T10:16:02.347Z,14700
2018-10-04T10:17:03.120Z,15112
2018-10-04T10:18:03.856Z,16992
2018-10-04T10:19:04.579Z,18976
2018-10-04T10:20:05.318Z,20224
2018-10-04T10:21:06.110Z,20576
2018-10-04T10:22:06.788Z,19776
2018-10-04T10:23:07.565Z,19360
2018-10-04T10:24:08.312Z,19552
2018-10-04T10:25:09.055Z,19616
2018-10-04T10:26:09.780Z,18912
2018-10-04T10:27:10.513Z,19328
2018-10-04T10:28:11.249Z,19456
2018-10-04T10:29:11.974Z,19328
2018-10-04T10:30:12.718Z,19264
2018-10-04T10:31:13.446Z,19296
2018-10-04T10:32:14.176Z,19488
2018-10-04T10:33:14.921Z,19744
2018-10-04T10:34:15.634Z,20480
2018-10-04T10:35:16.383Z,21696
2018-10-04T10:36:17.098Z,23232
2018-10-04T10:37:17.844Z,24256
2018-10-04T10:38:18.679Z,24544
2018-10-04T10:39:19.398Z,24160
2018-10-04T10:40:20.234Z,23808
2018-10-04T10:41:20.858Z,23328
2018-10-04T10:42:21.586Z,22944
2018-10-04T10:43:22.574Z,22400
2018-10-04T10:44:23.315Z,22368
2018-10-04T10:45:24.036Z,22560
2018-10-04T10:46:24.889Z,22464
2018-10-04T10:47:25.553Z,22112
2018-10-04T10:48:26.549Z,21504
2018-10-04T10:49:27.273Z,20768
2018-10-04T10:50:28.001Z,20000
2018-10-04T10:51:28.721Z,19104
2018-10-04T10:52:29.456Z,18112
2018-10-04T10:53:30.200Z,17144
2018-10-04T10:54:30.964Z,16660
2018-10-04T10:55:31.710Z,16772
2018-10-04T10:56:32.457Z,17236
2018-10-04T10:57:33.197Z,17716
2018-10-04T10:58:33.926Z,18240
2018-10-04T10:59:34.720Z,18464
2018-10-04T11:00:35.444Z,18784
2018-10-04T11:01:36.176Z,18560
2018-10-04T11:02:36.900Z,19264
2018-10-04T11:03:37.878Z,19744
2018-10-04T11:04:38.652Z,20128
2018-10-04T11:05:39.384Z,20128
2018-10-04T11:06:40.117Z,19680
2018-10-04T11:07:40.848Z,19360
2018-10-04T11:08:41.584Z,19456
2018-10-04T11:09:42.457Z,19424
2018-10-04T11:10:43.192Z,19232
2018-10-04T11:11:43.916Z,19360
2018-10-04T11:12:44.643Z,19456
2018-10-04T11:13:45.380Z,19264
2018-10-04T11:14:46.150Z,19104
2018-10-04T11:15:46.882Z,19296
2018-10-04T11:16:47.860Z,19232
2018-10-04T11:17:48.637Z,19680
2018-10-04T11:18:49.332Z,20256
2018-10-04T11:19:50.510Z,20416
2018-10-04T11:20:51.256Z,20544
2018-10-04T11:21:51.994Z,20544
2018-10-04T11:22:52.742Z,20224
2018-10-04T11:23:53.472Z,19584
2018-10-04T11:24:54.249Z,18880
2018-10-04T11:25:54.976Z,18464
2018-10-04T11:26:55.961Z,18272
2018-10-04T11:27:56.686Z,18272
2018-10-04T11:28:57.417Z,18304
2018-10-04T11:29:58.151Z,18176
2018-10-04T11:30:58.878Z,18144
2018-10-04T11:31:59.605Z,18208
2018-10-04T11:33:00.341Z,18240
2018-10-04T11:34:01.088Z,18080
2018-10-04T11:35:01.808Z,18144
2018-10-04T11:36:02.530Z,18560
2018-10-04T11:37:03.318Z,19104
2018-10-04T11:38:04.038Z,19392
2018-10-04T11:39:04.768Z,19392
2018-10-04T11:40:05.495Z,19168
2018-10-04T11:41:06.227Z,19008
2018-10-04T11:42:07.024Z,19168
2018-10-04T11:43:07.751Z,19200
2018-10-04T11:44:08.480Z,18944
2018-10-04T11:45:09.218Z,18592
2018-10-04T11:46:09.956Z,18752
2018-10-04T11:47:10.757Z,19392
2018-10-04T11:48:11.473Z,20000
2018-10-04T11:49:12.206Z,20160
2018-10-04T11:50:13.544Z,19648
2018-10-04T11:51:14.269Z,18784
2018-10-04T11:52:15.010Z,17952
2018-10-04T11:53:15.757Z,17004
2018-10-04T11:54:16.535Z,16372
2018-10-04T11:55:17.268Z,15788
2018-10-04T11:56:17.999Z,15748
2018-10-04T11:57:18.728Z,16040
2018-10-04T11:58:19.443Z,16648
2018-10-04T11:59:20.175Z,17952
2018-10-04T12:00:20.914Z,19104
2018-10-04T12:01:21.716Z,19520
2018-10-04T12:02:22.360Z,19424
2018-10-04T12:03:23.378Z,20000
2018-10-04T12:04:24.248Z,20928
2018-10-04T12:05:24.968Z,21696
2018-10-04T12:06:25.709Z,21664
2018-10-04T12:07:26.696Z,21344
2018-10-04T12:08:27.426Z,21632
2018-10-04T12:09:28.148Z,22752
2018-10-04T12:10:28.879Z,26208
2018-10-04T12:11:29.611Z,29408
2018-10-04T12:12:30.397Z,28704
2018-10-04T12:13:31.073Z,29216
2018-10-04T12:14:31.815Z,27744
2018-10-04T12:15:32.551Z,29248
2018-10-04T12:16:33.306Z,28256
2018-10-04T12:17:34.031Z,29632
2018-10-04T12:18:35.088Z,26720
2018-10-04T12:19:35.762Z,30624
2018-10-04T12:20:36.490Z,29600
2018-10-04T12:21:37.466Z,25920
2018-10-04T12:22:38.895Z,33920
2018-10-04T12:23:39.720Z,35648
2018-10-04T12:24:40.629Z,43264
2018-10-04T12:25:41.632Z,42784
2018-10-04T12:26:42.442Z,44576
2018-10-04T12:27:43.437Z,45984
2018-10-04T12:28:44.602Z,32160
2018-10-04T12:29:45.614Z,46752
2018-10-04T12:30:46.384Z,44896
2018-10-04T12:31:47.087Z,44416
2018-10-04T12:32:47.856Z,46464
2018-10-04T12:33:48.596Z,35968
2018-10-04T12:34:49.588Z,34368
2018-10-04T12:35:50.330Z,24480
2018-10-04T12:36:51.057Z,25312
2018-10-04T12:37:51.791Z,24864
2018-10-04T12:38:52.531Z,25344
2018-10-04T12:39:53.314Z,19104
2018-10-04T12:40:54.039Z,14076
2018-10-04T12:41:54.779Z,14096
2018-10-04T12:42:55.513Z,11660
2018-10-04T12:43:56.294Z,11208
2018-10-04T12:44:57.031Z,10820
2018-10-04T12:45:57.765Z,13704
2018-10-04T12:46:58.488Z,12188
2018-10-04T12:47:59.598Z,10536
2018-10-04T12:49:00.452Z,10716
2018-10-04T12:50:01.239Z,11304
2018-10-04T12:51:02.406Z,10336
2018-10-04T12:52:03.842Z,11736
2018-10-04T12:53:05.591Z,11040
2018-10-04T12:54:07.822Z,9932
2018-10-04T12:55:10.161Z,10640
2018-10-04T12:56:12.650Z,10604
2018-10-04T12:57:14.636Z,10180
2018-10-04T12:58:16.704Z,9716
2018-10-04T12:59:19.159Z,10628
2018-10-04T13:00:20.550Z,11052
2018-10-04T13:01:21.415Z,11808
2018-10-04T13:02:22.150Z,11716
2018-10-04T13:03:22.895Z,12972
2018-10-04T13:04:23.628Z,9708
2018-10-04T13:05:24.355Z,11612
2018-10-04T13:06:25.150Z,13296
2018-10-04T13:07:25.866Z,13588
2018-10-04T13:08:26.915Z,13012
2018-10-04T13:09:27.594Z,14192
2018-10-04T13:10:28.328Z,15796
2018-10-04T13:11:29.073Z,14600
2018-10-04T13:12:30.109Z,14116
2018-10-04T13:13:30.862Z,14860
2018-10-04T13:14:31.557Z,13520
2018-10-04T13:15:32.290Z,14948
2018-10-04T13:16:33.015Z,13632
2018-10-04T13:17:33.762Z,13036
2018-10-04T13:18:34.504Z,14260
2018-10-04T13:19:35.238Z,16928
2018-10-04T13:20:36.044Z,15988
2018-10-04T13:21:37.026Z,13932
2018-10-04T13:22:37.482Z,13172
2018-10-04T13:23:38.463Z,11560
2018-10-04T13:24:39.194Z,11712
2018-10-04T13:25:39.923Z,11556
2018-10-04T13:26:40.656Z,12144
2018-10-04T13:27:41.418Z,12956
2018-10-04T13:28:42.116Z,12932
2018-10-04T13:29:42.840Z,12372
2018-10-04T13:30:43.578Z,12444
2018-10-04T13:31:44.321Z,15240
2018-10-04T13:32:45.049Z,16620
2018-10-04T13:33:45.774Z,16504
2018-10-04T13:34:46.500Z,15560
2018-10-04T13:35:47.237Z,16180
2018-10-04T13:36:47.984Z,18816
2018-10-04T13:37:48.740Z,19680
2018-10-04T13:38:49.466Z,19168
2018-10-04T13:39:50.200Z,17816
2018-10-04T13:40:50.965Z,18784
2018-10-04T13:41:51.716Z,20000
2018-10-04T13:42:52.444Z,19168
2018-10-04T13:43:53.179Z,18008
2018-10-04T13:44:53.908Z,17620
2018-10-04T13:45:54.633Z,18240
2018-10-04T13:46:55.377Z,16600
2018-10-04T13:47:56.104Z,15988
2018-10-04T13:48:56.829Z,15184
2018-10-04T13:49:57.563Z,16232
2018-10-04T13:50:58.296Z,15768
2018-10-04T13:51:59.085Z,15880
2018-10-04T13:52:59.834Z,16076
2018-10-04T13:54:00.556Z,15912